Time;durP1;ratioP1;P1;durP2;ratioP2;P2;SDS_P1;SDS_P2;PMS_P1;PMS_P2;Temp;Humidity;BMP_temperature;BMP_pressure;BME280_temperature;BME280_humidity;BME280_pressure;Samples;Min_cycle;Max_cycle;Signal;HPM_P1;HPM_P2
2022/06/11 00:09:43;;;;;;;4.70;3.00;;;;;;;12.36;76.59;100021.89;431494;1270;142158;-51
2022/06/11 00:20:08;;;;;;;5.20;4.80;;;;;;;12.07;77.25;100018.98;431796;1270;141785;-52
2022/06/11 00:30:31;;;;;;;4.40;3.80;;;;;;;11.83;78.02;100026.75;432016;1270;142042;-53
2022/06/11 00:40:54;;;;;;;5.70;4.70;;;;;;;11.60;78.24;100034.30;430539;1270;146270;-52
2022/06/11 00:51:19;;;;;;;4.70;4.30;;;;;;;11.37;78.56;100033.61;431312;1269;142019;-52
2022/06/11 01:01:41;;;;;;;7.20;6.30;;;;;;;11.16;79.12;100032.54;432462;1270;142537;-54
2022/06/11 01:12:13;;;;;;;10.20;6.90;;;;;;;11.00;79.73;100035.61;431914;1270;144743;-53
2022/06/11 01:23:09;;;;;;;7.80;6.10;;;;;;;10.81;80.04;100036.34;431605;1270;141649;-52
2022/06/11 01:33:43;;;;;;;5.30;4.90;;;;;;;10.60;80.03;100036.83;432355;1270;142758;-55
2022/06/11 01:44:07;;;;;;;6.10;5.40;;;;;;;10.39;80.30;100036.38;432812;1270;197131;-54
2022/06/11 01:54:38;;;;;;;5.70;5.10;;;;;;;10.24;80.56;100036.33;431337;1270;147593;-54
2022/06/11 02:05:06;;;;;;;5.30;4.90;;;;;;;10.08;80.42;100037.89;430256;1271;142629;-52
2022/06/11 02:15:32;;;;;;;7.90;6.00;;;;;;;9.99;80.92;100035.27;431938;1270;143201;-55
2022/06/11 02:25:59;;;;;;;7.50;6.00;;;;;;;9.93;81.28;100027.71;430977;1270;141696;-52
2022/06/11 02:36:27;;;;;;;6.50;5.90;;;;;;;9.88;81.45;100025.02;431078;1270;142914;-53
2022/06/11 02:46:48;;;;;;;6.00;5.10;;;;;;;9.91;81.62;100035.00;430284;1270;143072;-52
2022/06/11 02:57:14;;;;;;;5.70;3.90;;;;;;;10.49;82.16;100030.05;431704;1270;142763;-51
2022/06/11 03:07:35;;;;;;;5.50;3.90;;;;;;;12.09;81.32;100032.77;432300;1270;142141;-56
2022/06/11 03:17:58;;;;;;;3.20;2.80;;;;;;;15.96;77.17;100030.58;431256;1270;142019;-51
2022/06/11 03:28:25;;;;;;;6.60;4.40;;;;;;;17.49;72.03;100037.13;431536;1268;142453;-54
2022/06/11 03:38:47;;;;;;;4.40;3.10;;;;;;;18.47;67.02;100039.69;431009;1270;145488;-53
2022/06/11 03:49:09;;;;;;;5.30;3.70;;;;;;;16.79;66.83;100044.14;431233;1270;142183;-52
2022/06/11 03:59:32;;;;;;;5.90;3.20;;;;;;;19.08;69.02;100045.75;444657;1268;142784;-53
2022/06/11 04:09:54;;;;;;;3.80;3.00;;;;;;;27.33;60.09;100037.20;439806;1269;143130;-55
2022/06/11 04:20:16;;;;;;;3.50;3.00;;;;;;;32.92;51.19;100039.77;443935;1269;143058;-56
2022/06/11 04:30:38;;;;;;;4.70;3.20;;;;;;;35.89;44.20;100027.05;441112;1269;141023;-55
2022/06/11 04:41:00;;;;;;;3.90;2.90;;;;;;;39.06;39.25;100030.46;437475;1270;196928;-57
2022/06/11 04:51:23;;;;;;;3.30;3.00;;;;;;;42.26;34.26;100031.46;437946;1269;141357;-55
2022/06/11 05:01:44;;;;;;;14.50;4.00;;;;;;;44.02;30.63;100035.84;447775;1269;141990;-56
2022/06/11 05:12:07;;;;;;;5.90;2.30;;;;;;;44.92;27.89;100042.29;447577;1269;143349;-55
2022/06/11 05:22:29;;;;;;;3.00;2.50;;;;;;;45.70;25.90;100045.73;447820;1269;142024;-56
2022/06/11 05:32:51;;;;;;;2.60;2.10;;;;;;;47.83;24.13;100052.50;447872;1269;143471;-55
2022/06/11 05:43:13;;;;;;;4.30;3.00;;;;;;;49.39;22.25;100055.02;443228;1269;141409;-56
2022/06/11 05:53:38;;;;;;;2.50;1.80;;;;;;;50.46;20.82;100060.04;447222;1269;142693;-59
2022/06/11 06:03:59;;;;;;;1.00;1.00;;;;;;;48.45;18.76;100054.23;445400;1268;142493;-59
2022/06/11 06:14:21;;;;;;;1.10;1.10;;;;;;;47.74;18.39;100058.61;432952;1270;141806;-59
2022/06/11 06:24:47;;;;;;;3.20;1.80;;;;;;;48.45;18.08;100073.94;432309;1270;141254;-56
2022/06/11 06:35:10;;;;;;;2.50;2.20;;;;;;;50.55;17.10;100085.81;441117;1269;141604;-56
2022/06/11 06:45:32;;;;;;;2.70;2.50;;;;;;;50.78;15.97;100084.53;434613;1269;141174;-56
2022/06/11 06:55:53;;;;;;;3.90;2.70;;;;;;;50.49;14.84;100083.33;434522;1269;143360;-56
2022/06/11 07:06:15;;;;;;;3.30;3.10;;;;;;;49.68;14.48;100086.52;435471;1270;142401;-56
2022/06/11 07:16:42;;;;;;;5.00;3.40;;;;;;;49.26;13.92;100091.84;431404;1269;141652;-56
2022/06/11 07:27:09;;;;;;;3.50;3.00;;;;;;;49.61;13.52;100094.59;440030;1270;141037;-56
2022/06/11 07:37:31;;;;;;;3.90;3.60;;;;;;;49.83;13.04;100094.54;442695;1269;141981;-57
2022/06/11 07:47:56;;;;;;;2.30;1.10;;;;;;;48.93;12.69;100083.36;447900;1269;141643;-56
2022/06/11 07:58:21;;;;;;;5.90;1.30;;;;;;;39.85;15.74;100096.16;431874;1268;145058;-56
2022/06/11 08:08:45;;;;;;;3.40;1.50;;;;;;;30.79;21.85;100105.55;431284;1270;146633;-58
2022/06/11 08:19:06;;;;;;;3.90;1.30;;;;;;;28.00;25.48;100106.10;435284;1269;145163;-55
2022/06/11 08:29:28;;;;;;;5.80;2.60;;;;;;;26.95;27.52;100102.95;430876;1270;295707;-53
2022/06/11 08:39:50;;;;;;;3.70;1.10;;;;;;;26.01;29.17;100097.03;432080;1270;141259;-55
2022/06/11 08:50:15;;;;;;;7.40;1.70;;;;;;;25.60;30.68;100099.63;431886;1270;142541;-52
2022/06/11 09:00:45;;;;;;;5.40;1.70;;;;;;;25.29;31.49;100093.83;431340;1270;141220;-52
2022/06/11 09:11:19;;;;;;;1.60;0.90;;;;;;;25.22;32.04;100099.38;431073;1269;144549;-55
2022/06/11 09:21:52;;;;;;;3.80;1.00;;;;;;;24.63;33.07;100101.70;431903;1270;141386;-53
2022/06/11 09:32:19;;;;;;;8.00;1.60;;;;;;;24.35;33.74;100095.42;431089;1270;141753;-55
2022/06/11 09:42:53;;;;;;;4.00;1.10;;;;;;;24.29;34.01;100092.30;431672;1270;141866;-54
2022/06/11 09:53:30;;;;;;;8.10;1.60;;;;;;;24.29;34.28;100082.48;431261;1270;142071;-54
2022/06/11 10:03:59;;;;;;;2.50;0.90;;;;;;;24.06;34.85;100079.52;431572;1269;141751;-54
2022/06/11 10:14:30;;;;;;;3.90;1.50;;;;;;;23.96;35.48;100074.70;442284;1270;141472;-56
2022/06/11 10:25:04;;;;;;;2.90;0.80;;;;;;;23.84;35.90;100071.87;433010;1270;141070;-53
2022/06/11 10:35:32;;;;;;;2.80;1.10;;;;;;;23.83;36.40;100067.98;430915;1270;146363;-57
2022/06/11 10:45:54;;;;;;;1.70;0.80;;;;;;;24.05;36.22;100059.48;431953;1270;142361;-55
2022/06/11 10:56:22;;;;;;;8.10;1.90;;;;;;;24.12;36.84;100059.20;431176;1270;142245;-55
2022/06/11 11:06:44;;;;;;;6.20;2.00;;;;;;;23.84;37.12;100049.31;431880;1271;142552;-54
2022/06/11 11:17:14;;;;;;;3.50;0.90;;;;;;;23.48;37.91;100043.48;431177;1270;144837;-52
2022/06/11 11:27:44;;;;;;;3.50;1.00;;;;;;;23.49;37.99;100037.28;431547;1271;142051;-55
2022/06/11 11:38:17;;;;;;;1.60;0.80;;;;;;;23.67;37.86;100037.22;430998;1270;146280;-55
2022/06/11 11:48:46;;;;;;;4.50;1.10;;;;;;;23.82;37.90;100032.38;431474;1270;142705;-59
2022/06/11 11:59:15;;;;;;;2.30;1.00;;;;;;;23.51;38.31;100026.89;430635;1270;163732;-57
2022/06/11 12:09:47;;;;;;;2.20;1.60;;;;;;;23.52;38.45;100027.70;431239;1270;141051;-56
2022/06/11 12:20:23;;;;;;;6.00;1.50;;;;;;;23.70;38.57;100022.96;430836;1270;142682;-57
2022/06/11 12:30:46;;;;;;;4.20;0.90;;;;;;;23.82;38.26;100018.14;431946;1270;142984;-58
2022/06/11 12:41:26;;;;;;;5.00;1.40;;;;;;;23.65;38.59;100012.59;430980;1270;142634;-58
2022/06/11 12:52:11;;;;;;;2.10;1.00;;;;;;;23.51;39.17;100015.47;431923;1270;141291;-57
2022/06/11 13:02:53;;;;;;;3.40;1.80;;;;;;;23.26;39.54;100006.14;431725;1271;142465;-56
2022/06/11 13:13:35;;;;;;;2.20;1.10;;;;;;;23.36;39.80;100011.33;432054;1270;141632;-58
2022/06/11 13:24:05;;;;;;;1.60;0.70;;;;;;;23.42;39.54;100009.10;433015;1269;147202;-58
2022/06/11 13:34:39;;;;;;;4.00;1.30;;;;;;;23.31;39.51;100004.23;441066;1270;147135;-58
2022/06/11 13:45:25;;;;;;;7.40;1.50;;;;;;;23.28;40.42;100000.15;443510;1269;143875;-56
2022/06/11 13:55:51;;;;;;;3.60;1.30;;;;;;;23.48;40.03;100001.64;440741;1270;142755;-56
2022/06/11 14:06:15;;;;;;;2.90;1.30;;;;;;;23.36;39.65;99994.57;439590;1270;141562;-58
2022/06/11 14:16:45;;;;;;;3.20;1.50;;;;;;;23.38;39.78;99993.48;444133;1269;141966;-56
2022/06/11 14:27:26;;;;;;;4.40;2.40;;;;;;;23.48;39.08;99986.94;446398;1269;142992;-57
2022/06/11 14:37:50;;;;;;;1.10;1.00;;;;;;;23.53;39.19;99978.95;442035;1269;164632;-56
2022/06/11 14:48:19;;;;;;;3.30;1.20;;;;;;;23.72;39.27;99972.86;447913;1270;141975;-57
2022/06/11 14:59:09;;;;;;;2.70;1.00;;;;;;;23.71;38.88;99960.91;447787;1269;141095;-57
2022/06/11 15:09:57;;;;;;;3.70;0.90;;;;;;;23.65;38.74;99956.48;445185;1269;141191;-57
2022/06/11 15:20:29;;;;;;;1.70;1.10;;;;;;;23.70;38.92;99945.89;438579;1269;141454;-58
2022/06/11 15:30:52;;;;;;;3.70;0.90;;;;;;;23.49;39.01;99934.02;447663;1269;142273;-57
2022/06/11 15:41:19;;;;;;;4.50;0.90;;;;;;;23.34;39.13;99933.56;440515;1269;141667;-57
2022/06/11 15:51:41;;;;;;;2.20;0.80;;;;;;;23.07;39.35;99935.27;447489;1269;141521;-57
2022/06/11 16:02:17;;;;;;;2.90;1.30;;;;;;;22.89;39.84;99927.27;446632;1269;142449;-57
2022/06/11 16:12:38;;;;;;;3.60;1.50;;;;;;;22.84;40.21;99925.06;441042;1269;143058;-59
2022/06/11 16:23:03;;;;;;;7.00;1.20;;;;;;;22.74;40.31;99923.77;431552;1270;146412;-57
2022/06/11 16:33:28;;;;;;;3.40;1.20;;;;;;;22.63;40.30;99918.11;431684;1270;141203;-57
2022/06/11 16:43:50;;;;;;;2.40;0.80;;;;;;;22.50;40.47;99914.52;431436;1270;140504;-61
2022/06/11 17:04:58;;;;;;;3.00;1.50;;;;;;;22.51;41.03;99916.36;432012;1270;140916;-60
2022/06/11 17:15:24;;;;;;;3.70;1.50;;;;;;;22.36;41.64;99911.03;433024;1270;141517;-58
2022/06/11 17:25:48;;;;;;;1.80;1.20;;;;;;;22.24;41.80;99911.74;432201;1270;141559;-59
2022/06/11 17:36:14;;;;;;;4.80;1.50;;;;;;;22.09;42.28;99906.48;432089;1270;211015;-58
2022/06/11 17:46:36;;;;;;;5.20;2.30;;;;;;;21.93;42.71;99908.84;432431;1270;142025;-58
2022/06/11 17:56:59;;;;;;;2.40;1.50;;;;;;;22.25;42.94;99910.60;431469;1270;141887;-59
2022/06/11 18:07:21;;;;;;;5.90;1.90;;;;;;;22.23;42.48;99920.09;431910;1270;140756;-58
2022/06/11 18:17:43;;;;;;;5.40;1.80;;;;;;;21.57;42.86;99923.66;430575;1270;141207;-58
2022/06/11 18:28:06;;;;;;;5.50;2.00;;;;;;;21.14;43.37;99941.41;432596;1269;142231;-57
2022/06/11 18:38:28;;;;;;;8.50;2.60;;;;;;;20.79;44.03;99947.30;431672;1270;141446;-58
2022/06/11 18:48:51;;;;;;;8.90;4.40;;;;;;;20.40;44.83;99958.69;432354;1270;141360;-57
2022/06/11 18:59:13;;;;;;;8.80;3.00;;;;;;;19.99;45.75;99969.02;432209;1270;141327;-60
2022/06/11 19:09:35;;;;;;;10.10;3.90;;;;;;;19.60;46.96;99978.39;431731;1270;141519;-59
2022/06/11 19:19:58;;;;;;;10.60;4.10;;;;;;;19.17;48.65;99993.97;431762;1269;142726;-58
2022/06/11 19:30:23;;;;;;;18.10;5.20;;;;;;;18.70;50.56;100008.25;432546;1270;141309;-58
2022/06/11 19:40:48;;;;;;;11.40;4.90;;;;;;;18.21;52.37;100013.48;432502;1270;140972;-57
2022/06/11 19:51:12;;;;;;;16.60;5.30;;;;;;;17.78;54.11;100014.22;432058;1270;141377;-57
2022/06/11 20:01:35;;;;;;;10.70;5.00;;;;;;;17.37;55.35;100018.08;431916;1270;143944;-58
2022/06/11 20:11:57;;;;;;;15.70;4.40;;;;;;;16.98;56.75;100022.39;435965;1270;141448;-57
2022/06/11 20:22:22;;;;;;;10.20;5.30;;;;;;;16.64;58.17;100023.60;432085;1270;141755;-57
2022/06/11 20:32:44;;;;;;;16.60;6.70;;;;;;;16.34;59.41;100031.34;429883;1270;255308;-58
2022/06/11 20:43:06;;;;;;;13.00;7.70;;;;;;;16.07;60.34;100030.71;430558;1270;141937;-56
2022/06/11 20:53:29;;;;;;;11.20;5.50;;;;;;;15.79;61.48;100030.39;429972;1270;143681;-59
2022/06/11 21:03:51;;;;;;;15.30;11.00;;;;;;;15.55;62.46;100030.12;431076;1270;146123;-57
2022/06/11 21:14:12;;;;;;;14.30;11.30;;;;;;;15.43;63.24;100024.37;430393;1270;146103;-57
2022/06/11 21:24:37;;;;;;;22.10;11.50;;;;;;;15.30;63.95;100023.41;431147;1270;144927;-58
2022/06/11 21:34:59;;;;;;;21.60;11.20;;;;;;;15.14;64.58;100032.02;431042;1270;145660;-57
2022/06/11 21:45:24;;;;;;;16.00;11.20;;;;;;;14.94;65.05;100027.31;430557;1270;143611;-57
2022/06/11 21:55:46;;;;;;;20.50;11.50;;;;;;;14.73;65.73;100023.91;430743;1270;142576;-55
2022/06/11 22:06:08;;;;;;;13.10;9.80;;;;;;;14.53;66.73;100030.88;430598;1269;201223;-58
2022/06/11 22:16:32;;;;;;;11.80;9.60;;;;;;;14.31;67.42;100028.39;430589;1270;143064;-57
2022/06/11 22:26:54;;;;;;;12.00;10.80;;;;;;;14.16;67.69;100022.45;447003;1269;142181;-58
2022/06/11 22:37:15;;;;;;;12.80;10.80;;;;;;;14.07;68.11;100013.90;447372;1268;143354;-59
2022/06/11 22:47:37;;;;;;;15.80;10.40;;;;;;;14.00;68.72;100013.14;436226;1269;143180;-58
2022/06/11 22:58:01;;;;;;;18.50;10.40;;;;;;;13.96;69.36;100008.16;444819;1269;143098;-62
2022/06/11 23:08:23;;;;;;;15.80;11.30;;;;;;;13.86;69.71;100006.07;447042;1269;142552;-57
2022/06/11 23:18:44;;;;;;;19.40;11.80;;;;;;;13.76;70.16;100005.70;443007;1269;142966;-58
2022/06/11 23:29:06;;;;;;;15.90;10.40;;;;;;;13.70;70.52;100003.30;447036;1269;144173;-59
2022/06/11 23:39:27;;;;;;;20.20;10.80;;;;;;;13.60;70.77;99997.33;433764;1270;143090;-57
2022/06/11 23:49:49;;;;;;;12.30;10.60;;;;;;;13.45;70.97;99996.91;438565;1269;142243;-57
